sensor_id;sensor_type;location;lat;lon;timestamp;P1;durP1;ratioP1;P2;durP2;ratioP2
73954;SDS011;62306;52.516;13.290;2022-09-17T00:00:18;7.45;;;2.25;;
73954;SDS011;62306;52.516;13.290;2022-09-17T00:02:48;8.02;;;2.22;;
73954;SDS011;62306;52.516;13.290;2022-09-17T00:05:19;7.20;;;2.03;;
73954;SDS011;62306;52.516;13.290;2022-09-17T00:07:47;7.95;;;2.33;;
73954;SDS011;62306;52.516;13.290;2022-09-17T00:10:15;8.05;;;2.33;;
73954;SDS011;62306;52.516;13.290;2022-09-17T00:12:42;10.48;;;2.25;;
73954;SDS011;62306;52.516;13.290;2022-09-17T00:15:10;10.85;;;2.70;;
73954;SDS011;62306;52.516;13.290;2022-09-17T00:17:37;9.98;;;2.45;;
73954;SDS011;62306;52.516;13.290;2022-09-17T00:20:05;13.10;;;2.85;;
73954;SDS011;62306;52.516;13.290;2022-09-17T00:22:34;11.55;;;2.45;;
73954;SDS011;62306;52.516;13.290;2022-09-17T00:25:01;9.35;;;2.75;;
73954;SDS011;62306;52.516;13.290;2022-09-17T00:27:29;6.35;;;2.30;;
73954;SDS011;62306;52.516;13.290;2022-09-17T00:29:56;10.45;;;2.65;;
73954;SDS011;62306;52.516;13.290;2022-09-17T00:32:24;10.10;;;2.30;;
73954;SDS011;62306;52.516;13.290;2022-09-17T00:34:51;10.73;;;2.30;;
73954;SDS011;62306;52.516;13.290;2022-09-17T00:37:18;9.95;;;2.50;;
73954;SDS011;62306;52.516;13.290;2022-09-17T00:39:45;15.82;;;2.65;;
73954;SDS011;62306;52.516;13.290;2022-09-17T00:42:13;9.25;;;2.25;;
73954;SDS011;62306;52.516;13.290;2022-09-17T00:44:42;8.07;;;2.45;;
73954;SDS011;62306;52.516;13.290;2022-09-17T00:47:16;9.80;;;2.20;;
73954;SDS011;62306;52.516;13.290;2022-09-17T00:49:50;6.50;;;1.75;;
73954;SDS011;62306;52.516;13.290;2022-09-17T00:52:21;8.02;;;2.25;;
73954;SDS011;62306;52.516;13.290;2022-09-17T00:57:23;4.93;;;2.40;;
73954;SDS011;62306;52.516;13.290;2022-09-17T00:59:51;5.88;;;2.25;;
73954;SDS011;62306;52.516;13.290;2022-09-17T01:02:19;5.63;;;2.08;;
73954;SDS011;62306;52.516;13.290;2022-09-17T01:04:46;8.70;;;2.22;;
73954;SDS011;62306;52.516;13.290;2022-09-17T01:07:17;9.10;;;2.60;;
73954;SDS011;62306;52.516;13.290;2022-09-17T01:09:53;10.60;;;2.17;;
73954;SDS011;62306;52.516;13.290;2022-09-17T01:12:27;11.88;;;2.55;;
73954;SDS011;62306;52.516;13.290;2022-09-17T01:15:07;11.50;;;2.13;;
73954;SDS011;62306;52.516;13.290;2022-09-17T01:17:48;6.13;;;1.90;;
73954;SDS011;62306;52.516;13.290;2022-09-17T01:20:32;9.73;;;2.40;;
73954;SDS011;62306;52.516;13.290;2022-09-17T01:23:24;12.77;;;2.42;;
73954;SDS011;62306;52.516;13.290;2022-09-17T01:26:13;10.70;;;2.35;;
73954;SDS011;62306;52.516;13.290;2022-09-17T01:28:56;7.93;;;2.50;;
73954;SDS011;62306;52.516;13.290;2022-09-17T01:31:33;13.43;;;2.70;;
73954;SDS011;62306;52.516;13.290;2022-09-17T01:34:10;9.43;;;2.53;;
73954;SDS011;62306;52.516;13.290;2022-09-17T01:36:48;17.25;;;2.78;;
73954;SDS011;62306;52.516;13.290;2022-09-17T01:39:30;10.77;;;2.53;;
73954;SDS011;62306;52.516;13.290;2022-09-17T01:42:06;9.93;;;2.45;;
73954;SDS011;62306;52.516;13.290;2022-09-17T01:44:41;6.78;;;2.20;;
73954;SDS011;62306;52.516;13.290;2022-09-17T01:47:17;8.32;;;2.20;;
73954;SDS011;62306;52.516;13.290;2022-09-17T01:49:48;9.15;;;2.03;;
73954;SDS011;62306;52.516;13.290;2022-09-17T01:52:18;12.40;;;2.13;;
73954;SDS011;62306;52.516;13.290;2022-09-17T01:54:46;14.15;;;2.67;;
73954;SDS011;62306;52.516;13.290;2022-09-17T01:57:18;8.88;;;2.30;;
73954;SDS011;62306;52.516;13.290;2022-09-17T01:59:53;21.75;;;11.52;;
73954;SDS011;62306;52.516;13.290;2022-09-17T02:02:27;33.43;;;14.00;;
73954;SDS011;62306;52.516;13.290;2022-09-17T02:04:58;13.60;;;4.38;;
73954;SDS011;62306;52.516;13.290;2022-09-17T02:07:30;11.93;;;2.65;;
73954;SDS011;62306;52.516;13.290;2022-09-17T02:10:04;9.43;;;3.67;;
73954;SDS011;62306;52.516;13.290;2022-09-17T02:12:35;10.88;;;4.55;;
73954;SDS011;62306;52.516;13.290;2022-09-17T02:15:06;10.52;;;2.67;;
73954;SDS011;62306;52.516;13.290;2022-09-17T02:17:38;14.35;;;2.80;;
73954;SDS011;62306;52.516;13.290;2022-09-17T02:20:08;11.63;;;2.22;;
73954;SDS011;62306;52.516;13.290;2022-09-17T02:22:38;14.27;;;3.00;;
73954;SDS011;62306;52.516;13.290;2022-09-17T02:25:09;8.10;;;2.80;;
73954;SDS011;62306;52.516;13.290;2022-09-17T02:27:46;10.40;;;3.00;;
73954;SDS011;62306;52.516;13.290;2022-09-17T02:30:18;14.50;;;3.65;;
73954;SDS011;62306;52.516;13.290;2022-09-17T02:32:47;11.75;;;2.97;;
73954;SDS011;62306;52.516;13.290;2022-09-17T02:35:14;11.30;;;3.00;;
73954;SDS011;62306;52.516;13.290;2022-09-17T02:37:41;12.25;;;2.67;;
73954;SDS011;62306;52.516;13.290;2022-09-17T02:40:09;12.38;;;3.00;;
73954;SDS011;62306;52.516;13.290;2022-09-17T02:42:42;11.77;;;2.60;;
73954;SDS011;62306;52.516;13.290;2022-09-17T02:45:25;24.05;;;4.10;;
73954;SDS011;62306;52.516;13.290;2022-09-17T02:48:05;12.32;;;4.13;;
73954;SDS011;62306;52.516;13.290;2022-09-17T02:50:44;14.73;;;2.92;;
73954;SDS011;62306;52.516;13.290;2022-09-17T02:53:25;17.90;;;3.00;;
73954;SDS011;62306;52.516;13.290;2022-09-17T02:56:01;11.32;;;2.63;;
73954;SDS011;62306;52.516;13.290;2022-09-17T02:58:42;16.63;;;3.13;;
73954;SDS011;62306;52.516;13.290;2022-09-17T03:01:13;16.80;;;3.25;;
73954;SDS011;62306;52.516;13.290;2022-09-17T03:03:47;12.15;;;3.58;;
73954;SDS011;62306;52.516;13.290;2022-09-17T03:06:16;14.68;;;3.42;;
73954;SDS011;62306;52.516;13.290;2022-09-17T03:08:44;11.98;;;2.47;;
73954;SDS011;62306;52.516;13.290;2022-09-17T03:11:11;10.50;;;2.85;;
73954;SDS011;62306;52.516;13.290;2022-09-17T03:13:40;18.38;;;3.10;;
73954;SDS011;62306;52.516;13.290;2022-09-17T03:16:07;11.18;;;2.47;;
73954;SDS011;62306;52.516;13.290;2022-09-17T03:18:34;11.90;;;3.13;;
73954;SDS011;62306;52.516;13.290;2022-09-17T03:21:02;9.88;;;2.35;;
73954;SDS011;62306;52.516;13.290;2022-09-17T03:23:29;12.55;;;2.35;;
73954;SDS011;62306;52.516;13.290;2022-09-17T03:25:56;9.90;;;2.63;;
73954;SDS011;62306;52.516;13.290;2022-09-17T03:28:24;10.75;;;2.00;;
73954;SDS011;62306;52.516;13.290;2022-09-17T03:30:51;12.68;;;2.30;;
73954;SDS011;62306;52.516;13.290;2022-09-17T03:33:18;10.15;;;2.40;;
73954;SDS011;62306;52.516;13.290;2022-09-17T03:35:45;9.45;;;2.70;;
73954;SDS011;62306;52.516;13.290;2022-09-17T03:38:14;13.68;;;2.85;;
73954;SDS011;62306;52.516;13.290;2022-09-17T03:40:41;9.30;;;2.55;;
73954;SDS011;62306;52.516;13.290;2022-09-17T03:43:08;11.75;;;2.58;;
73954;SDS011;62306;52.516;13.290;2022-09-17T03:45:35;10.00;;;3.13;;
73954;SDS011;62306;52.516;13.290;2022-09-17T03:48:02;14.88;;;3.30;;
73954;SDS011;62306;52.516;13.290;2022-09-17T03:50:29;13.43;;;3.15;;
73954;SDS011;62306;52.516;13.290;2022-09-17T03:52:56;15.52;;;2.95;;
73954;SDS011;62306;52.516;13.290;2022-09-17T03:55:25;13.02;;;2.95;;
73954;SDS011;62306;52.516;13.290;2022-09-17T03:57:52;13.80;;;3.53;;
73954;SDS011;62306;52.516;13.290;2022-09-17T04:00:20;12.95;;;2.15;;
73954;SDS011;62306;52.516;13.290;2022-09-17T04:02:47;10.43;;;2.25;;
73954;SDS011;62306;52.516;13.290;2022-09-17T04:05:14;15.32;;;2.33;;
73954;SDS011;62306;52.516;13.290;2022-09-17T04:07:41;14.02;;;2.92;;
73954;SDS011;62306;52.516;13.290;2022-09-17T04:10:08;16.35;;;2.40;;
73954;SDS011;62306;52.516;13.290;2022-09-17T04:12:36;13.82;;;2.35;;
73954;SDS011;62306;52.516;13.290;2022-09-17T04:15:04;15.30;;;2.70;;
73954;SDS011;62306;52.516;13.290;2022-09-17T04:17:32;14.23;;;2.33;;
73954;SDS011;62306;52.516;13.290;2022-09-17T04:20:00;16.35;;;2.20;;
73954;SDS011;62306;52.516;13.290;2022-09-17T04:22:28;9.93;;;2.45;;
73954;SDS011;62306;52.516;13.290;2022-09-17T04:24:55;11.90;;;2.13;;
73954;SDS011;62306;52.516;13.290;2022-09-17T04:27:23;10.75;;;2.15;;
73954;SDS011;62306;52.516;13.290;2022-09-17T04:29:51;16.25;;;2.17;;
73954;SDS011;62306;52.516;13.290;2022-09-17T04:32:18;10.55;;;2.20;;
73954;SDS011;62306;52.516;13.290;2022-09-17T04:34:45;19.45;;;2.65;;
73954;SDS011;62306;52.516;13.290;2022-09-17T04:37:12;14.63;;;2.65;;
73954;SDS011;62306;52.516;13.290;2022-09-17T04:39:39;11.55;;;2.85;;
73954;SDS011;62306;52.516;13.290;2022-09-17T04:42:06;12.52;;;2.08;;
73954;SDS011;62306;52.516;13.290;2022-09-17T04:44:33;11.85;;;2.35;;
73954;SDS011;62306;52.516;13.290;2022-09-17T04:47:01;11.00;;;2.40;;
73954;SDS011;62306;52.516;13.290;2022-09-17T04:49:29;12.82;;;2.42;;
73954;SDS011;62306;52.516;13.290;2022-09-17T04:51:56;12.75;;;2.35;;
73954;SDS011;62306;52.516;13.290;2022-09-17T04:54:23;8.45;;;2.67;;
73954;SDS011;62306;52.516;13.290;2022-09-17T04:56:50;10.10;;;2.05;;
73954;SDS011;62306;52.516;13.290;2022-09-17T04:59:18;10.98;;;2.72;;
73954;SDS011;62306;52.516;13.290;2022-09-17T05:01:44;10.30;;;2.45;;
73954;SDS011;62306;52.516;13.290;2022-09-17T05:04:13;10.80;;;2.20;;
73954;SDS011;62306;52.516;13.290;2022-09-17T05:06:40;12.07;;;2.50;;
73954;SDS011;62306;52.516;13.290;2022-09-17T05:09:07;18.23;;;3.08;;
73954;SDS011;62306;52.516;13.290;2022-09-17T05:11:34;11.43;;;2.85;;
73954;SDS011;62306;52.516;13.290;2022-09-17T05:14:01;14.52;;;2.47;;
73954;SDS011;62306;52.516;13.290;2022-09-17T05:16:28;8.30;;;3.00;;
73954;SDS011;62306;52.516;13.290;2022-09-17T05:18:55;12.32;;;2.60;;
73954;SDS011;62306;52.516;13.290;2022-09-17T05:21:23;13.98;;;5.88;;
73954;SDS011;62306;52.516;13.290;2022-09-17T05:23:50;10.85;;;2.58;;
73954;SDS011;62306;52.516;13.290;2022-09-17T05:26:18;17.55;;;3.58;;
73954;SDS011;62306;52.516;13.290;2022-09-17T05:28:44;11.23;;;2.38;;
73954;SDS011;62306;52.516;13.290;2022-09-17T05:31:11;8.70;;;2.13;;
73954;SDS011;62306;52.516;13.290;2022-09-17T05:33:38;10.80;;;2.40;;
73954;SDS011;62306;52.516;13.290;2022-09-17T05:36:06;9.07;;;2.30;;
73954;SDS011;62306;52.516;13.290;2022-09-17T05:38:34;16.10;;;2.80;;
73954;SDS011;62306;52.516;13.290;2022-09-17T05:41:02;13.10;;;2.72;;
73954;SDS011;62306;52.516;13.290;2022-09-17T05:43:30;13.05;;;2.47;;
73954;SDS011;62306;52.516;13.290;2022-09-17T05:45:59;10.68;;;2.53;;
73954;SDS011;62306;52.516;13.290;2022-09-17T05:48:27;9.82;;;2.97;;
73954;SDS011;62306;52.516;13.290;2022-09-17T05:50:54;13.85;;;2.88;;
73954;SDS011;62306;52.516;13.290;2022-09-17T05:53:21;10.75;;;2.05;;
73954;SDS011;62306;52.516;13.290;2022-09-17T05:55:50;10.80;;;2.88;;
73954;SDS011;62306;52.516;13.290;2022-09-17T05:58:21;12.93;;;2.87;;
73954;SDS011;62306;52.516;13.290;2022-09-17T06:00:48;9.95;;;3.60;;
73954;SDS011;62306;52.516;13.290;2022-09-17T06:03:15;17.17;;;3.47;;
73954;SDS011;62306;52.516;13.290;2022-09-17T06:05:50;17.45;;;3.42;;
73954;SDS011;62306;52.516;13.290;2022-09-17T06:08:19;21.60;;;5.35;;
73954;SDS011;62306;52.516;13.290;2022-09-17T06:10:46;25.20;;;3.80;;
73954;SDS011;62306;52.516;13.290;2022-09-17T06:13:14;21.23;;;4.30;;
73954;SDS011;62306;52.516;13.290;2022-09-17T06:15:41;14.95;;;3.50;;
73954;SDS011;62306;52.516;13.290;2022-09-17T06:18:08;25.38;;;4.22;;
73954;SDS011;62306;52.516;13.290;2022-09-17T06:20:35;15.30;;;3.70;;
73954;SDS011;62306;52.516;13.290;2022-09-17T06:23:02;25.45;;;4.60;;
73954;SDS011;62306;52.516;13.290;2022-09-17T06:25:29;24.35;;;4.93;;
73954;SDS011;62306;52.516;13.290;2022-09-17T06:27:56;17.67;;;3.72;;
73954;SDS011;62306;52.516;13.290;2022-09-17T06:30:24;16.40;;;4.00;;
73954;SDS011;62306;52.516;13.290;2022-09-17T06:32:51;22.15;;;4.05;;
73954;SDS011;62306;52.516;13.290;2022-09-17T06:35:17;22.48;;;3.90;;
73954;SDS011;62306;52.516;13.290;2022-09-17T06:37:44;24.77;;;4.22;;
73954;SDS011;62306;52.516;13.290;2022-09-17T06:40:11;22.65;;;3.70;;
73954;SDS011;62306;52.516;13.290;2022-09-17T06:42:39;19.50;;;4.60;;
73954;SDS011;62306;52.516;13.290;2022-09-17T06:45:07;23.73;;;4.97;;
73954;SDS011;62306;52.516;13.290;2022-09-17T06:47:35;20.13;;;3.92;;
73954;SDS011;62306;52.516;13.290;2022-09-17T06:50:02;19.05;;;4.10;;
73954;SDS011;62306;52.516;13.290;2022-09-17T06:52:30;30.23;;;4.97;;
73954;SDS011;62306;52.516;13.290;2022-09-17T06:54:57;20.15;;;4.35;;
73954;SDS011;62306;52.516;13.290;2022-09-17T06:57:24;25.88;;;4.38;;
73954;SDS011;62306;52.516;13.290;2022-09-17T06:59:50;17.10;;;3.92;;
73954;SDS011;62306;52.516;13.290;2022-09-17T07:02:17;21.88;;;4.03;;
73954;SDS011;62306;52.516;13.290;2022-09-17T07:04:46;18.38;;;3.40;;
73954;SDS011;62306;52.516;13.290;2022-09-17T07:07:12;19.80;;;3.92;;
73954;SDS011;62306;52.516;13.290;2022-09-17T07:09:39;11.65;;;3.28;;
73954;SDS011;62306;52.516;13.290;2022-09-17T07:12:07;21.98;;;4.60;;
73954;SDS011;62306;52.516;13.290;2022-09-17T07:14:34;15.40;;;3.33;;
73954;SDS011;62306;52.516;13.290;2022-09-17T07:17:01;16.35;;;3.63;;
73954;SDS011;62306;52.516;13.290;2022-09-17T07:19:28;14.30;;;3.33;;
73954;SDS011;62306;52.516;13.290;2022-09-17T07:21:57;15.73;;;3.30;;
73954;SDS011;62306;52.516;13.290;2022-09-17T07:24:24;12.35;;;3.08;;
73954;SDS011;62306;52.516;13.290;2022-09-17T07:26:51;16.40;;;3.10;;
73954;SDS011;62306;52.516;13.290;2022-09-17T07:29:20;25.55;;;3.00;;
73954;SDS011;62306;52.516;13.290;2022-09-17T07:31:50;25.70;;;2.90;;
73954;SDS011;62306;52.516;13.290;2022-09-17T07:34:17;18.23;;;3.33;;
73954;SDS011;62306;52.516;13.290;2022-09-17T07:36:44;18.40;;;2.78;;
73954;SDS011;62306;52.516;13.290;2022-09-17T07:39:12;14.50;;;3.30;;
73954;SDS011;62306;52.516;13.290;2022-09-17T07:41:39;19.52;;;2.65;;
73954;SDS011;62306;52.516;13.290;2022-09-17T07:44:06;19.10;;;3.20;;
73954;SDS011;62306;52.516;13.290;2022-09-17T07:46:33;14.73;;;2.38;;
73954;SDS011;62306;52.516;13.290;2022-09-17T07:49:01;20.63;;;2.63;;
73954;SDS011;62306;52.516;13.290;2022-09-17T07:51:28;15.75;;;1.98;;
73954;SDS011;62306;52.516;13.290;2022-09-17T07:53:55;15.43;;;2.60;;
73954;SDS011;62306;52.516;13.290;2022-09-17T07:56:26;15.25;;;2.47;;
73954;SDS011;62306;52.516;13.290;2022-09-17T07:58:53;14.45;;;2.72;;
73954;SDS011;62306;52.516;13.290;2022-09-17T08:01:20;18.63;;;3.42;;
73954;SDS011;62306;52.516;13.290;2022-09-17T08:03:47;13.80;;;3.05;;
73954;SDS011;62306;52.516;13.290;2022-09-17T08:06:16;19.13;;;3.13;;
73954;SDS011;62306;52.516;13.290;2022-09-17T08:08:44;15.02;;;3.25;;
73954;SDS011;62306;52.516;13.290;2022-09-17T08:11:13;19.80;;;3.95;;
73954;SDS011;62306;52.516;13.290;2022-09-17T08:13:46;21.80;;;3.35;;
73954;SDS011;62306;52.516;13.290;2022-09-17T08:16:13;22.30;;;3.35;;
73954;SDS011;62306;52.516;13.290;2022-09-17T08:18:41;14.77;;;2.17;;
73954;SDS011;62306;52.516;13.290;2022-09-17T08:21:09;14.20;;;2.47;;
73954;SDS011;62306;52.516;13.290;2022-09-17T08:23:37;17.13;;;2.55;;
73954;SDS011;62306;52.516;13.290;2022-09-17T08:26:13;17.83;;;2.30;;
73954;SDS011;62306;52.516;13.290;2022-09-17T08:28:44;15.20;;;2.17;;
73954;SDS011;62306;52.516;13.290;2022-09-17T08:31:13;16.40;;;2.50;;
73954;SDS011;62306;52.516;13.290;2022-09-17T08:33:41;13.70;;;2.30;;
73954;SDS011;62306;52.516;13.290;2022-09-17T08:36:09;16.73;;;2.60;;
73954;SDS011;62306;52.516;13.290;2022-09-17T08:38:37;18.00;;;2.40;;
73954;SDS011;62306;52.516;13.290;2022-09-17T08:41:08;13.18;;;3.08;;
73954;SDS011;62306;52.516;13.290;2022-09-17T08:43:51;14.50;;;2.50;;
73954;SDS011;62306;52.516;13.290;2022-09-17T08:46:31;15.27;;;2.25;;
73954;SDS011;62306;52.516;13.290;2022-09-17T08:49:04;15.25;;;2.60;;
73954;SDS011;62306;52.516;13.290;2022-09-17T08:51:41;14.55;;;2.65;;
73954;SDS011;62306;52.516;13.290;2022-09-17T08:54:16;15.02;;;2.40;;
73954;SDS011;62306;52.516;13.290;2022-09-17T08:56:53;15.38;;;3.17;;
73954;SDS011;62306;52.516;13.290;2022-09-17T08:59:36;13.95;;;2.15;;
73954;SDS011;62306;52.516;13.290;2022-09-17T09:02:09;9.68;;;2.80;;
73954;SDS011;62306;52.516;13.290;2022-09-17T09:04:55;15.80;;;2.60;;
73954;SDS011;62306;52.516;13.290;2022-09-17T09:07:26;21.60;;;3.92;;
73954;SDS011;62306;52.516;13.290;2022-09-17T09:10:02;13.18;;;2.90;;
73954;SDS011;62306;52.516;13.290;2022-09-17T09:12:34;18.45;;;3.03;;
73954;SDS011;62306;52.516;13.290;2022-09-17T09:15:04;12.95;;;2.78;;
73954;SDS011;62306;52.516;13.290;2022-09-17T09:17:35;14.05;;;2.03;;
73954;SDS011;62306;52.516;13.290;2022-09-17T09:20:10;20.13;;;2.72;;
73954;SDS011;62306;52.516;13.290;2022-09-17T09:22:44;12.60;;;1.80;;
73954;SDS011;62306;52.516;13.290;2022-09-17T09:25:20;10.50;;;2.75;;
73954;SDS011;62306;52.516;13.290;2022-09-17T09:28:02;14.50;;;2.63;;
73954;SDS011;62306;52.516;13.290;2022-09-17T09:30:41;11.38;;;2.50;;
73954;SDS011;62306;52.516;13.290;2022-09-17T09:33:25;14.85;;;3.17;;
73954;SDS011;62306;52.516;13.290;2022-09-17T09:35:55;16.67;;;2.20;;
73954;SDS011;62306;52.516;13.290;2022-09-17T09:38:23;10.55;;;2.00;;
73954;SDS011;62306;52.516;13.290;2022-09-17T09:40:59;11.25;;;2.35;;
73954;SDS011;62306;52.516;13.290;2022-09-17T09:43:34;14.00;;;2.70;;
73954;SDS011;62306;52.516;13.290;2022-09-17T09:46:16;17.80;;;2.15;;
73954;SDS011;62306;52.516;13.290;2022-09-17T09:48:59;13.93;;;2.05;;
73954;SDS011;62306;52.516;13.290;2022-09-17T09:51:38;10.90;;;3.00;;
73954;SDS011;62306;52.516;13.290;2022-09-17T09:54:27;13.02;;;2.05;;
73954;SDS011;62306;52.516;13.290;2022-09-17T09:57:03;19.48;;;2.45;;
73954;SDS011;62306;52.516;13.290;2022-09-17T09:59:33;8.90;;;2.50;;
73954;SDS011;62306;52.516;13.290;2022-09-17T10:02:02;11.55;;;2.20;;
73954;SDS011;62306;52.516;13.290;2022-09-17T10:04:29;12.73;;;2.70;;
73954;SDS011;62306;52.516;13.290;2022-09-17T10:06:59;7.85;;;1.92;;
73954;SDS011;62306;52.516;13.290;2022-09-17T10:09:28;14.13;;;1.85;;
73954;SDS011;62306;52.516;13.290;2022-09-17T10:12:04;7.57;;;1.90;;
73954;SDS011;62306;52.516;13.290;2022-09-17T10:17:19;12.68;;;1.65;;
73954;SDS011;62306;52.516;13.290;2022-09-17T10:20:07;5.50;;;1.48;;
73954;SDS011;62306;52.516;13.290;2022-09-17T10:22:40;11.73;;;2.20;;
73954;SDS011;62306;52.516;13.290;2022-09-17T10:25:27;14.40;;;2.92;;
73954;SDS011;62306;52.516;13.290;2022-09-17T10:27:55;11.13;;;2.10;;
73954;SDS011;62306;52.516;13.290;2022-09-17T10:30:24;12.52;;;3.13;;
73954;SDS011;62306;52.516;13.290;2022-09-17T10:36:01;13.48;;;1.98;;
73954;SDS011;62306;52.516;13.290;2022-09-17T10:38:31;11.35;;;2.05;;
73954;SDS011;62306;52.516;13.290;2022-09-17T10:41:14;16.25;;;2.63;;
73954;SDS011;62306;52.516;13.290;2022-09-17T10:43:43;12.77;;;2.17;;
73954;SDS011;62306;52.516;13.290;2022-09-17T10:46:12;13.98;;;2.45;;
73954;SDS011;62306;52.516;13.290;2022-09-17T10:48:44;9.00;;;2.63;;
73954;SDS011;62306;52.516;13.290;2022-09-17T10:51:19;9.18;;;2.20;;
73954;SDS011;62306;52.516;13.290;2022-09-17T10:53:55;15.60;;;2.45;;
73954;SDS011;62306;52.516;13.290;2022-09-17T10:56:45;12.68;;;2.08;;
73954;SDS011;62306;52.516;13.290;2022-09-17T10:59:29;10.00;;;1.90;;
73954;SDS011;62306;52.516;13.290;2022-09-17T11:02:12;11.55;;;1.95;;
73954;SDS011;62306;52.516;13.290;2022-09-17T11:04:59;10.93;;;1.75;;
73954;SDS011;62306;52.516;13.290;2022-09-17T11:07:40;5.95;;;1.35;;
73954;SDS011;62306;52.516;13.290;2022-09-17T11:10:20;10.02;;;2.05;;
73954;SDS011;62306;52.516;13.290;2022-09-17T11:13:01;13.98;;;1.73;;
73954;SDS011;62306;52.516;13.290;2022-09-17T11:15:39;11.20;;;2.42;;
73954;SDS011;62306;52.516;13.290;2022-09-17T11:21:27;5.43;;;1.73;;
73954;SDS011;62306;52.516;13.290;2022-09-17T11:24:22;8.32;;;1.65;;
73954;SDS011;62306;52.516;13.290;2022-09-17T11:27:10;11.27;;;1.77;;
73954;SDS011;62306;52.516;13.290;2022-09-17T11:29:49;9.18;;;1.75;;
73954;SDS011;62306;52.516;13.290;2022-09-17T11:32:43;7.57;;;1.58;;
73954;SDS011;62306;52.516;13.290;2022-09-17T11:35:37;10.40;;;1.40;;
73954;SDS011;62306;52.516;13.290;2022-09-17T11:38:13;10.13;;;1.55;;
73954;SDS011;62306;52.516;13.290;2022-09-17T11:40:46;4.72;;;1.30;;
73954;SDS011;62306;52.516;13.290;2022-09-17T11:43:20;6.88;;;1.40;;
73954;SDS011;62306;52.516;13.290;2022-09-17T11:45:56;9.43;;;1.67;;
73954;SDS011;62306;52.516;13.290;2022-09-17T11:48:29;7.55;;;1.48;;
73954;SDS011;62306;52.516;13.290;2022-09-17T11:51:01;4.85;;;1.25;;
73954;SDS011;62306;52.516;13.290;2022-09-17T11:53:38;10.18;;;1.63;;
73954;SDS011;62306;52.516;13.290;2022-09-17T11:56:11;7.93;;;1.35;;
73954;SDS011;62306;52.516;13.290;2022-09-17T11:58:43;4.88;;;1.08;;
73954;SDS011;62306;52.516;13.290;2022-09-17T12:01:15;8.93;;;1.40;;
73954;SDS011;62306;52.516;13.290;2022-09-17T12:03:50;7.10;;;1.92;;
73954;SDS011;62306;52.516;13.290;2022-09-17T12:06:27;7.18;;;1.38;;
73954;SDS011;62306;52.516;13.290;2022-09-17T12:09:03;6.13;;;1.45;;
73954;SDS011;62306;52.516;13.290;2022-09-17T12:11:37;11.43;;;2.83;;
73954;SDS011;62306;52.516;13.290;2022-09-17T12:14:08;6.78;;;1.60;;
73954;SDS011;62306;52.516;13.290;2022-09-17T12:16:43;3.55;;;1.30;;
73954;SDS011;62306;52.516;13.290;2022-09-17T12:19:14;7.07;;;1.20;;
73954;SDS011;62306;52.516;13.290;2022-09-17T12:21:46;6.25;;;1.25;;
73954;SDS011;62306;52.516;13.290;2022-09-17T12:24:19;8.73;;;1.60;;
73954;SDS011;62306;52.516;13.290;2022-09-17T12:27:05;9.27;;;1.75;;
73954;SDS011;62306;52.516;13.290;2022-09-17T12:29:46;4.25;;;0.90;;
73954;SDS011;62306;52.516;13.290;2022-09-17T12:35:41;9.55;;;2.22;;
73954;SDS011;62306;52.516;13.290;2022-09-17T12:38:30;7.25;;;1.50;;
73954;SDS011;62306;52.516;13.290;2022-09-17T12:41:14;6.85;;;1.50;;
73954;SDS011;62306;52.516;13.290;2022-09-17T12:43:51;10.60;;;2.20;;
73954;SDS011;62306;52.516;13.290;2022-09-17T12:46:33;7.47;;;1.88;;
73954;SDS011;62306;52.516;13.290;2022-09-17T12:49:16;5.47;;;2.40;;
73954;SDS011;62306;52.516;13.290;2022-09-17T12:51:54;11.43;;;1.85;;
73954;SDS011;62306;52.516;13.290;2022-09-17T12:54:31;8.50;;;2.58;;
73954;SDS011;62306;52.516;13.290;2022-09-17T12:57:26;13.23;;;5.07;;
73954;SDS011;62306;52.516;13.290;2022-09-17T13:00:03;7.35;;;2.40;;
73954;SDS011;62306;52.516;13.290;2022-09-17T13:08:29;5.97;;;1.00;;
73954;SDS011;62306;52.516;13.290;2022-09-17T13:11:34;5.68;;;2.05;;
73954;SDS011;62306;52.516;13.290;2022-09-17T13:14:18;6.40;;;2.05;;
73954;SDS011;62306;52.516;13.290;2022-09-17T13:16:59;4.18;;;1.27;;
73954;SDS011;62306;52.516;13.290;2022-09-17T13:19:32;4.43;;;1.42;;
73954;SDS011;62306;52.516;13.290;2022-09-17T13:22:05;7.18;;;1.23;;
73954;SDS011;62306;52.516;13.290;2022-09-17T13:24:37;6.73;;;1.17;;
73954;SDS011;62306;52.516;13.290;2022-09-17T13:27:05;6.82;;;1.02;;
73954;SDS011;62306;52.516;13.290;2022-09-17T13:29:59;9.23;;;3.35;;
73954;SDS011;62306;52.516;13.290;2022-09-17T13:32:43;4.55;;;1.60;;
73954;SDS011;62306;52.516;13.290;2022-09-17T13:38:17;10.40;;;1.30;;
73954;SDS011;62306;52.516;13.290;2022-09-17T13:40:46;8.70;;;1.65;;
73954;SDS011;62306;52.516;13.290;2022-09-17T13:43:14;6.65;;;1.25;;
73954;SDS011;62306;52.516;13.290;2022-09-17T13:48:35;6.05;;;0.95;;
73954;SDS011;62306;52.516;13.290;2022-09-17T13:54:09;6.93;;;1.20;;
73954;SDS011;62306;52.516;13.290;2022-09-17T13:56:37;8.23;;;1.38;;
73954;SDS011;62306;52.516;13.290;2022-09-17T13:59:10;13.93;;;1.60;;
73954;SDS011;62306;52.516;13.290;2022-09-17T14:01:58;10.60;;;2.13;;
73954;SDS011;62306;52.516;13.290;2022-09-17T14:04:31;8.65;;;1.40;;
73954;SDS011;62306;52.516;13.290;2022-09-17T14:09:58;8.02;;;1.80;;
73954;SDS011;62306;52.516;13.290;2022-09-17T14:15:34;16.15;;;1.92;;
73954;SDS011;62306;52.516;13.290;2022-09-17T14:18:37;5.70;;;1.60;;
73954;SDS011;62306;52.516;13.290;2022-09-17T14:21:10;7.68;;;1.38;;
73954;SDS011;62306;52.516;13.290;2022-09-17T14:23:43;8.23;;;1.77;;
73954;SDS011;62306;52.516;13.290;2022-09-17T14:26:14;4.60;;;1.50;;
73954;SDS011;62306;52.516;13.290;2022-09-17T14:28:51;4.38;;;1.10;;
73954;SDS011;62306;52.516;13.290;2022-09-17T14:31:24;10.65;;;1.67;;
73954;SDS011;62306;52.516;13.290;2022-09-17T14:33:58;4.93;;;1.42;;
73954;SDS011;62306;52.516;13.290;2022-09-17T14:38:58;4.95;;;1.42;;
73954;SDS011;62306;52.516;13.290;2022-09-17T14:41:27;4.03;;;1.15;;
73954;SDS011;62306;52.516;13.290;2022-09-17T14:43:59;4.22;;;1.70;;
73954;SDS011;62306;52.516;13.290;2022-09-17T14:46:29;5.65;;;2.10;;
73954;SDS011;62306;52.516;13.290;2022-09-17T14:49:13;8.90;;;2.13;;
73954;SDS011;62306;52.516;13.290;2022-09-17T14:51:41;4.18;;;1.20;;
73954;SDS011;62306;52.516;13.290;2022-09-17T14:54:13;3.05;;;1.00;;
73954;SDS011;62306;52.516;13.290;2022-09-17T14:56:46;3.65;;;0.88;;
73954;SDS011;62306;52.516;13.290;2022-09-17T14:59:19;3.25;;;1.08;;
73954;SDS011;62306;52.516;13.290;2022-09-17T15:01:51;11.15;;;6.28;;
73954;SDS011;62306;52.516;13.290;2022-09-17T15:04:23;3.22;;;1.20;;
73954;SDS011;62306;52.516;13.290;2022-09-17T15:06:51;6.90;;;2.40;;
73954;SDS011;62306;52.516;13.290;2022-09-17T15:09:21;4.43;;;1.20;;
73954;SDS011;62306;52.516;13.290;2022-09-17T15:11:50;1.90;;;1.13;;
73954;SDS011;62306;52.516;13.290;2022-09-17T15:14:19;2.97;;;1.08;;
73954;SDS011;62306;52.516;13.290;2022-09-17T15:16:47;2.28;;;0.73;;
73954;SDS011;62306;52.516;13.290;2022-09-17T15:19:18;2.28;;;0.93;;
73954;SDS011;62306;52.516;13.290;2022-09-17T15:21:52;1.20;;;0.60;;
73954;SDS011;62306;52.516;13.290;2022-09-17T15:24:31;8.07;;;1.30;;
73954;SDS011;62306;52.516;13.290;2022-09-17T15:27:04;3.95;;;1.13;;
73954;SDS011;62306;52.516;13.290;2022-09-17T15:29:37;3.17;;;0.73;;
73954;SDS011;62306;52.516;13.290;2022-09-17T15:32:09;4.35;;;0.90;;